Time;durP1;ratioP1;P1;durP2;ratioP2;P2;SDS_P1;SDS_P2;PMS_P1;PMS_P2;Temp;Humidity;BMP_temperature;BMP_pressure;BME280_temperature;BME280_humidity;BME280_pressure;Samples;Min_cycle;Max_cycle;Signal;HPM_P1;HPM_P2
2021/03/23 00:02:14;;;;;;;9.77;5.00;;;5.50;99.90;;;6.19;100.00;98984.31;5093193;28;20473;-80
2021/03/23 00:08:51;;;;;;;8.83;5.27;;;5.10;99.90;;;6.06;100.00;98996.72;5092952;28;20466;-80
2021/03/23 00:15:21;;;;;;;12.60;5.40;;;5.10;99.90;;;6.03;100.00;98986.63;5092663;28;21042;-80
2021/03/23 00:26:53;;;;;;;13.63;5.63;;;5.30;99.90;;;6.10;100.00;98987.72;5072437;28;20499;-80
2021/03/23 00:33:26;;;;;;;10.80;5.43;;;5.20;99.90;;;6.05;100.00;98988.13;5072303;28;20499;-80
2021/03/23 00:40:02;;;;;;;9.70;4.77;;;5.20;99.90;;;6.09;100.00;98991.28;5072180;28;20408;-81
2021/03/23 00:46:36;;;;;;;9.77;5.03;;;5.30;99.90;;;6.06;100.00;98983.75;5072442;28;20431;-81
2021/03/23 00:53:12;;;;;;;10.30;5.10;;;5.10;99.90;;;5.95;100.00;98984.69;5075782;28;20849;-80
2021/03/23 00:59:45;;;;;;;11.30;4.63;;;5.20;99.90;;;6.01;100.00;98983.31;5075613;28;20550;-81
2021/03/23 01:06:20;;;;;;;16.23;4.70;;;5.20;99.90;;;5.96;100.00;98985.53;5075867;28;20872;-80
2021/03/23 01:12:48;;;;;;;13.63;6.43;;;5.00;99.90;;;5.99;100.00;98985.25;5075335;28;20836;-80
2021/03/23 01:19:16;;;;;;;25.87;6.23;;;5.30;99.90;;;5.97;100.00;98987.97;5075577;28;20935;-80
2021/03/23 01:26:09;;;;;;;9.80;6.07;;;5.30;99.90;;;5.95;100.00;98996.84;5095653;28;20415;-80
2021/03/23 01:32:43;;;;;;;12.63;5.30;;;5.00;99.90;;;5.85;100.00;98993.38;5095420;28;20510;-80
2021/03/23 01:39:17;;;;;;;9.03;4.80;;;5.00;99.90;;;5.93;100.00;98996.19;5095372;28;20419;-81
2021/03/23 01:45:55;;;;;;;15.20;5.47;;;5.10;99.90;;;5.93;100.00;98990.97;5095126;28;20464;-81
2021/03/23 01:52:30;;;;;;;11.40;5.50;;;5.10;99.90;;;5.79;100.00;98983.53;5095032;28;20457;-81
2021/03/23 01:59:06;;;;;;;10.30;5.63;;;4.90;99.90;;;5.74;100.00;98978.75;5094255;28;20411;-81
2021/03/23 02:05:34;;;;;;;8.77;5.60;;;5.00;99.90;;;5.82;100.00;98988.47;5094645;28;20442;-81
2021/03/23 02:12:06;;;;;;;11.63;4.93;;;4.90;99.90;;;5.82;100.00;98983.28;5095083;28;20473;-81
2021/03/23 02:18:40;;;;;;;10.00;5.63;;;4.90;99.90;;;5.74;100.00;98985.72;5094667;28;20446;-81
2021/03/23 02:25:24;;;;;;;9.47;5.60;;;4.90;99.90;;;5.64;100.00;98979.69;5094091;28;20465;-80
2021/03/23 02:32:00;;;;;;;14.07;6.23;;;4.70;99.90;;;5.55;100.00;98978.72;5094308;28;21000;-81
2021/03/23 02:38:33;;;;;;;13.40;5.77;;;4.70;99.90;;;5.59;100.00;98974.88;5093863;28;20829;-80
2021/03/23 02:45:10;;;;;;;8.23;5.70;;;4.70;99.90;;;5.43;100.00;98988.38;5093951;28;20595;-80
2021/03/23 02:51:48;;;;;;;12.70;6.60;;;4.70;99.90;;;5.51;100.00;98980.75;5093745;28;20493;-80
2021/03/23 02:58:23;;;;;;;9.93;6.17;;;4.70;99.90;;;5.45;100.00;98976.06;5093736;28;20419;-80
2021/03/23 03:04:51;;;;;;;12.70;6.17;;;4.70;99.90;;;5.39;100.00;98966.22;5093713;28;20426;-81
2021/03/23 03:11:18;;;;;;;15.40;6.03;;;4.40;99.90;;;5.32;100.00;98970.28;5092563;28;20488;-80
2021/03/23 03:18:19;;;;;;;17.67;6.67;;;4.60;99.90;;;5.40;100.00;98975.66;5093496;28;20533;-80
2021/03/23 03:29:50;;;;;;;12.27;7.00;;;4.50;99.90;;;5.40;100.00;98980.84;5073365;28;20819;-80
2021/03/23 03:36:27;;;;;;;18.97;6.73;;;4.60;99.90;;;5.28;100.00;98988.81;5072839;28;20551;-81
2021/03/23 03:43:01;;;;;;;11.43;5.93;;;4.50;99.90;;;5.31;100.00;98980.81;5072758;28;20423;-80
2021/03/23 03:49:35;;;;;;;12.53;6.73;;;4.40;99.90;;;5.38;100.00;98981.94;5072897;28;20924;-80
2021/03/23 03:56:09;;;;;;;13.40;6.40;;;4.50;99.90;;;5.40;100.00;98990.41;5072649;28;20582;-80
2021/03/23 04:02:43;;;;;;;10.13;5.67;;;4.60;99.90;;;5.42;100.00;98985.88;5072550;28;20431;-80
2021/03/23 04:09:18;;;;;;;20.43;6.70;;;4.70;99.90;;;5.47;100.00;98987.16;5072513;28;20545;-80
2021/03/23 04:15:49;;;;;;;11.00;6.17;;;4.70;99.90;;;5.47;100.00;98988.91;5072441;28;20935;-80
2021/03/23 04:22:16;;;;;;;11.93;6.00;;;4.50;99.90;;;5.42;100.00;98991.91;5073962;28;20424;-80
2021/03/23 04:29:10;;;;;;;11.40;6.97;;;4.60;99.90;;;5.47;100.00;98996.69;5096699;28;20793;-80
2021/03/23 04:35:48;;;;;;;16.47;6.53;;;4.60;99.90;;;5.49;100.00;98993.00;5096489;28;20467;-80
2021/03/23 04:42:21;;;;;;;13.47;7.07;;;4.60;99.90;;;5.46;100.00;98988.09;5096493;28;20418;-80
2021/03/23 04:48:57;;;;;;;11.33;5.60;;;4.70;99.90;;;5.50;100.00;98994.66;5096583;28;20431;-80
2021/03/23 04:55:24;;;;;;;19.33;8.07;;;4.70;99.90;;;5.46;100.00;99000.22;5096161;28;20494;-80
2021/03/23 05:01:51;;;;;;;19.43;7.30;;;4.60;99.90;;;5.39;100.00;98997.34;5096231;28;20429;-80
2021/03/23 05:08:20;;;;;;;14.90;6.90;;;4.50;99.90;;;5.39;100.00;98997.34;5096018;28;20418;-80
2021/03/23 05:14:53;;;;;;;12.90;6.73;;;4.50;99.90;;;5.41;100.00;99010.19;5095728;28;20462;-80
2021/03/23 05:21:27;;;;;;;15.20;7.70;;;4.80;99.90;;;5.45;100.00;99007.19;5095609;28;20524;-80
2021/03/23 05:32:57;;;;;;;13.47;8.07;;;4.80;99.90;;;5.45;100.00;99007.19;5075044;28;20447;-80
2021/03/23 05:39:31;;;;;;;16.83;8.20;;;4.60;99.90;;;5.44;100.00;99015.13;5075326;28;20538;-80
2021/03/23 05:46:23;;;;;;;15.77;7.47;;;4.60;99.90;;;5.41;100.00;99016.22;5075038;28;21008;-80
2021/03/23 05:53:01;;;;;;;16.30;7.60;;;4.60;99.90;;;5.40;100.00;99009.38;5074685;28;20447;-80
2021/03/23 05:59:44;;;;;;;10.80;7.70;;;4.70;99.90;;;5.39;100.00;99017.28;5074853;28;20424;-80
2021/03/23 06:06:36;;;;;;;16.43;8.33;;;4.60;99.90;;;5.46;100.00;99014.03;5074850;28;20614;-80
2021/03/23 06:13:26;;;;;;;17.27;8.30;;;4.70;99.90;;;5.49;100.00;99018.94;5075452;28;20447;-80
2021/03/23 06:20:28;;;;;;;16.60;8.40;;;4.60;99.90;;;5.50;100.00;99024.97;5074616;28;21031;-80
2021/03/23 06:27:12;;;;;;;15.30;7.47;;;4.70;99.90;;;5.50;100.00;99025.78;5083285;28;20810;-80
2021/03/23 06:33:47;;;;;;;13.67;8.30;;;4.80;99.90;;;5.56;100.00;99033.03;5094414;28;20875;-80
2021/03/23 06:40:18;;;;;;;16.93;7.87;;;4.80;99.90;;;5.67;100.00;99045.09;5094243;28;20415;-80
2021/03/23 06:46:48;;;;;;;17.10;7.30;;;4.90;99.90;;;5.67;100.00;99042.50;5094029;28;20768;-81
2021/03/23 06:53:23;;;;;;;14.43;7.47;;;4.90;99.90;;;5.76;100.00;99046.09;5093858;28;20419;-80
2021/03/23 07:00:20;;;;;;;14.33;7.53;;;5.00;99.90;;;5.75;100.00;99049.63;5093875;28;20411;-79
2021/03/23 07:07:12;;;;;;;12.50;7.57;;;5.00;99.90;;;5.85;100.00;99046.13;5093611;28;20764;-80
2021/03/23 07:13:46;;;;;;;12.87;7.63;;;5.10;99.90;;;5.93;100.00;99058.47;5093490;28;20485;-80
2021/03/23 07:20:43;;;;;;;12.13;7.23;;;5.30;99.90;;;5.99;100.00;99063.13;5093072;28;20534;-80
2021/03/23 07:31:31;;;;;;;11.20;6.87;;;5.40;99.90;;;6.14;95.40;99064.41;5093308;28;20411;-80
2021/03/23 07:38:17;;;;;;;13.20;6.80;;;5.50;99.90;;;6.23;92.11;99066.19;5093371;28;20446;-80
2021/03/23 07:45:00;;;;;;;13.90;7.20;;;5.60;99.90;;;6.28;89.78;99069.19;5093146;28;20415;-81
2021/03/23 07:51:37;;;;;;;13.50;6.67;;;5.60;99.60;;;6.39;88.82;99076.03;5092946;28;20945;-80
2021/03/23 07:58:42;;;;;;;14.07;6.33;;;5.80;99.20;;;6.47;86.98;99076.19;5092533;28;20454;-80
2021/03/23 08:05:20;;;;;;;13.80;6.23;;;5.80;98.80;;;6.51;85.29;99080.97;5092783;28;20902;-80
2021/03/23 08:12:19;;;;;;;12.27;5.83;;;5.90;98.50;;;6.49;84.41;99088.06;5092539;28;20511;-80
2021/03/23 08:19:41;;;;;;;15.10;6.43;;;5.80;97.70;;;6.52;83.12;99087.00;5092581;28;20465;-80
2021/03/23 08:26:24;;;;;;;13.93;7.23;;;5.90;98.60;;;6.69;84.20;99093.28;5092317;28;20414;-80
2021/03/23 08:33:13;;;;;;;13.20;7.50;;;6.00;98.10;;;6.80;83.87;99099.19;5092584;28;20968;-80
2021/03/23 08:40:02;;;;;;;19.60;6.40;;;6.10;97.90;;;6.70;80.88;99094.94;5092771;28;20430;-80
2021/03/23 08:46:37;;;;;;;14.83;8.07;;;6.00;97.40;;;6.70;82.16;99100.16;5092819;28;20418;-80
2021/03/23 08:53:47;;;;;;;12.40;6.27;;;6.10;98.10;;;6.82;80.92;99110.25;5092275;28;20472;-80
2021/03/23 09:01:01;;;;;;;13.23;6.20;;;6.30;97.90;;;6.96;80.67;99111.63;5092513;28;20459;-80
2021/03/23 09:07:36;;;;;;;20.90;9.40;;;6.30;97.60;;;7.05;80.31;99129.81;5092234;28;20860;-81
2021/03/23 09:14:23;;;;;;;18.40;8.53;;;6.40;97.60;;;7.16;79.72;99128.84;5095997;28;20946;-80
2021/03/23 09:21:07;;;;;;;15.20;7.70;;;6.50;97.30;;;7.28;78.70;99126.91;5095909;28;20469;-81
2021/03/23 09:32:05;;;;;;;17.43;7.70;;;6.70;97.30;;;7.45;78.29;99124.44;5095575;28;20447;-80
2021/03/23 09:38:43;;;;;;;15.67;8.80;;;6.70;96.90;;;7.45;77.51;99124.44;5095627;28;20821;-80
2021/03/23 09:45:35;;;;;;;18.20;9.43;;;6.80;96.90;;;7.51;78.31;99118.66;5095267;28;20508;-80
2021/03/23 09:52:18;;;;;;;25.43;9.17;;;6.90;97.10;;;7.60;76.80;99109.19;5095158;28;20419;-80
2021/03/23 09:58:45;;;;;;;17.77;9.60;;;6.90;96.90;;;7.57;75.97;99096.44;5095319;28;20502;-80
2021/03/23 10:05:25;;;;;;;23.73;9.47;;;7.00;96.80;;;7.63;77.17;99097.66;5094955;28;20489;-80
2021/03/23 10:12:01;;;;;;;24.53;10.57;;;7.10;96.90;;;7.69;77.53;99084.06;5094844;28;20407;-80
2021/03/23 10:18:31;;;;;;;21.97;8.60;;;7.10;96.80;;;7.82;77.25;99082.78;5095004;28;20922;-87
2021/03/23 10:25:17;;;;;;;31.40;10.90;;;7.30;96.70;;;7.92;78.15;99067.09;5094918;28;20540;-86
2021/03/23 10:32:16;;;;;;;27.70;10.90;;;7.20;96.80;;;7.89;77.60;99059.59;5094472;28;20427;-85
2021/03/23 10:38:47;;;;;;;23.00;9.33;;;7.30;96.90;;;7.96;78.67;99064.06;5094501;28;20422;-80
2021/03/23 10:45:41;;;;;;;15.97;9.33;;;7.40;97.30;;;8.01;77.98;99067.06;5094360;28;20422;-82
2021/03/23 10:52:31;;;;;;;15.97;8.57;;;7.40;97.60;;;8.04;78.88;99060.75;5093758;28;20931;-82
2021/03/23 10:59:12;;;;;;;20.63;9.80;;;7.40;97.70;;;8.05;78.35;99055.38;5093894;28;20447;-82
2021/03/23 11:05:45;;;;;;;16.87;8.80;;;7.50;97.10;;;8.10;78.54;99049.75;5094070;28;20517;-82
2021/03/23 11:12:14;;;;;;;20.37;9.60;;;7.50;97.40;;;8.13;78.63;99049.44;5093583;28;20458;-82
2021/03/23 11:18:49;;;;;;;15.70;9.70;;;7.50;97.30;;;8.21;78.28;99049.53;5093582;28;20461;-82
2021/03/23 11:25:26;;;;;;;19.03;9.87;;;7.60;97.50;;;8.42;78.88;99038.88;5093490;28;20826;-82
2021/03/23 11:32:01;;;;;;;32.73;9.40;;;7.90;97.10;;;8.46;77.00;99046.25;5092838;28;20536;-82
2021/03/23 11:38:35;;;;;;;20.57;8.53;;;7.80;96.90;;;8.46;77.12;99038.44;5093281;28;20439;-82
2021/03/23 11:45:22;;;;;;;17.90;9.50;;;7.90;97.00;;;8.62;78.16;99047.34;5093227;28;20469;-85
2021/03/23 11:51:58;;;;;;;16.23;7.60;;;7.90;97.50;;;8.63;77.32;99038.56;5093013;28;20489;-81
2021/03/23 11:58:26;;;;;;;17.93;8.67;;;7.90;97.20;;;8.70;77.43;99035.19;5092994;28;20466;-82
2021/03/23 12:05:00;;;;;;;16.97;9.67;;;8.10;97.10;;;8.79;76.88;99029.06;5092801;28;20515;-83
2021/03/23 12:11:49;;;;;;;16.57;8.33;;;8.20;97.20;;;8.93;76.84;99028.53;5092770;28;20780;-82
2021/03/23 12:18:24;;;;;;;17.07;8.70;;;8.20;97.10;;;8.96;75.95;99023.00;5092664;28;20430;-82
2021/03/23 12:24:52;;;;;;;19.23;10.07;;;8.20;97.10;;;8.74;76.70;99015.69;5092823;28;20419;-81
2021/03/23 12:31:52;;;;;;;14.50;9.30;;;8.20;96.90;;;8.87;77.86;99013.50;5092722;28;20441;-81
2021/03/23 12:38:26;;;;;;;17.50;9.10;;;8.20;97.50;;;8.95;77.89;99005.75;5094012;28;20411;-80
2021/03/23 12:45:09;;;;;;;19.83;10.10;;;8.30;97.60;;;8.95;78.16;99003.13;5098235;28;20410;-79
2021/03/23 12:51:51;;;;;;;18.53;10.10;;;8.30;97.50;;;9.02;77.89;98998.13;5097476;28;20469;-80
2021/03/23 12:58:28;;;;;;;15.50;8.73;;;8.40;97.60;;;9.07;77.58;98995.84;5096235;28;20465;-81
2021/03/23 13:05:02;;;;;;;17.37;9.10;;;8.50;97.80;;;9.14;76.36;98978.59;5096308;28;20815;-80
2021/03/23 13:11:39;;;;;;;14.90;8.60;;;8.70;97.20;;;9.25;76.61;98975.72;5095815;28;20439;-81
2021/03/23 13:18:15;;;;;;;17.27;8.80;;;8.70;97.00;;;9.36;76.55;98967.63;5096149;28;20498;-80
2021/03/23 13:24:45;;;;;;;16.03;8.37;;;8.80;96.70;;;9.38;76.68;98957.84;5096002;28;20423;-80
2021/03/23 13:36:38;;;;;;;17.50;9.50;;;8.90;96.60;;;9.45;75.80;98953.63;5075353;28;20565;-79
2021/03/23 13:43:19;;;;;;;19.20;9.40;;;8.90;96.50;;;9.53;75.14;98951.06;5075304;28;20471;-79
2021/03/23 13:49:53;;;;;;;23.30;9.57;;;9.10;96.60;;;9.68;74.47;98947.84;5075383;28;20807;-80
2021/03/23 13:56:22;;;;;;;19.37;10.43;;;9.10;97.00;;;9.81;76.50;98950.81;5074268;28;20459;-80
2021/03/23 14:02:56;;;;;;;14.20;9.37;;;9.20;97.00;;;9.99;75.56;98941.06;5074723;28;20412;-79
2021/03/23 14:09:41;;;;;;;18.33;9.67;;;9.80;96.20;;;10.70;71.92;98929.97;5074867;28;20490;-80
2021/03/23 14:16:16;;;;;;;15.23;9.93;;;10.50;95.20;;;11.07;67.77;98927.63;5074636;28;20463;-79
2021/03/23 14:22:44;;;;;;;20.00;9.73;;;10.60;94.20;;;11.00;67.39;98927.44;5074576;28;20470;-80
2021/03/23 14:29:18;;;;;;;14.67;9.70;;;10.30;94.80;;;10.91;67.17;98925.03;5074428;28;20452;-79
2021/03/23 14:36:15;;;;;;;19.53;9.90;;;10.40;94.40;;;10.99;68.90;98917.16;5094155;28;20481;-80
2021/03/23 14:42:42;;;;;;;15.80;8.97;;;10.50;94.90;;;10.90;67.40;98918.16;5094272;28;20433;-80
2021/03/23 14:49:10;;;;;;;16.20;9.53;;;10.40;94.90;;;11.06;68.92;98920.75;5094294;28;20406;-80
2021/03/23 14:55:47;;;;;;;19.17;10.73;;;10.60;94.60;;;11.18;68.15;98914.13;5094187;28;20454;-80
2021/03/23 15:02:21;;;;;;;15.83;8.93;;;10.70;94.70;;;11.20;67.41;98912.19;5093697;28;20470;-80
2021/03/23 15:08:52;;;;;;;24.57;9.27;;;10.60;94.70;;;11.24;68.39;98913.50;5093647;28;20950;-80
2021/03/23 15:15:23;;;;;;;17.03;7.70;;;10.80;94.60;;;11.26;68.08;98908.88;5093741;28;20552;-80
2021/03/23 15:21:58;;;;;;;21.97;8.87;;;10.70;94.80;;;11.23;68.00;98913.66;5093605;28;20772;-80
2021/03/23 15:28:32;;;;;;;14.73;9.10;;;10.60;94.60;;;11.04;68.96;98905.19;5093639;28;20588;-80
2021/03/23 15:35:10;;;;;;;16.00;10.43;;;10.50;95.00;;;10.97;68.70;98904.22;5093504;28;20454;-80
2021/03/23 15:41:38;;;;;;;70.60;31.87;;;10.30;95.10;;;10.82;69.36;98897.25;5093141;28;20469;-82
2021/03/23 15:48:12;;;;;;;18.80;9.70;;;10.20;95.10;;;11.00;69.87;98905.72;5093301;28;20494;-83
2021/03/23 15:54:48;;;;;;;18.50;10.10;;;10.40;95.00;;;11.14;69.06;98905.03;5093580;28;20461;-80
2021/03/23 16:01:24;;;;;;;17.13;10.10;;;10.50;94.80;;;11.26;68.44;98903.66;5093887;28;20515;-80
2021/03/23 16:08:03;;;;;;;18.20;10.40;;;10.60;95.10;;;11.28;68.45;98904.28;5093516;28;20510;-80
2021/03/23 16:14:39;;;;;;;17.97;10.90;;;10.60;94.70;;;11.32;68.29;98899.53;5093206;28;20515;-80
2021/03/23 16:21:16;;;;;;;19.03;10.63;;;10.50;94.80;;;11.14;67.74;98893.72;5093086;28;20469;-80
2021/03/23 16:27:44;;;;;;;18.07;10.57;;;10.40;95.10;;;11.15;68.67;98893.53;5092824;28;20772;-80
2021/03/23 16:39:16;;;;;;;24.47;10.83;;;10.20;95.00;;;10.94;68.69;98901.97;5093189;28;20474;-80
2021/03/23 16:45:50;;;;;;;18.83;11.20;;;10.00;95.40;;;10.79;69.68;98903.66;5092938;28;20423;-80
2021/03/23 16:52:25;;;;;;;23.13;9.83;;;9.90;95.80;;;10.62;70.73;98909.88;5092695;28;20422;-80
2021/03/23 16:58:54;;;;;;;22.70;10.30;;;9.90;96.00;;;10.54;71.50;98917.75;5092684;28;20415;-80
2021/03/23 17:05:22;;;;;;;22.03;9.73;;;9.80;96.10;;;10.40;73.45;98910.56;5092889;28;20415;-80
2021/03/23 17:11:56;;;;;;;14.70;8.37;;;9.40;96.90;;;10.03;77.68;98916.25;5092407;28;20438;-80
2021/03/23 17:18:31;;;;;;;14.23;8.13;;;8.80;98.60;;;9.66;80.56;98923.66;5092450;28;20918;-80
2021/03/23 17:25:19;;;;;;;17.10;8.30;;;8.70;98.60;;;9.37;83.43;98929.31;5092394;28;20423;-79
2021/03/23 17:31:49;;;;;;;19.60;9.07;;;8.40;99.50;;;9.05;86.82;98932.59;5095950;28;20454;-80
2021/03/23 17:38:44;;;;;;;29.93;8.80;;;8.10;99.80;;;8.75;89.24;98939.06;5095791;28;20484;-80
2021/03/23 17:45:23;;;;;;;12.60;8.80;;;7.90;99.90;;;8.57;90.41;98936.50;5095777;28;20429;-80
2021/03/23 17:51:58;;;;;;;15.33;9.50;;;7.70;99.90;;;8.43;91.85;98951.91;5094042;28;20468;-81
2021/03/23 17:58:27;;;;;;;16.50;8.57;;;7.50;99.90;;;8.30;92.45;98949.66;5095231;28;20798;-81
2021/03/23 18:05:01;;;;;;;12.47;7.50;;;7.30;99.90;;;8.10;93.53;98953.34;5095366;28;20442;-80
2021/03/23 18:11:35;;;;;;;12.90;7.90;;;7.20;99.90;;;7.78;95.36;98955.63;5095025;28;20461;-80
2021/03/23 18:18:12;;;;;;;14.13;7.97;;;6.70;99.90;;;7.69;94.36;98956.53;5094458;28;20467;-80
2021/03/23 18:24:41;;;;;;;14.07;8.13;;;6.80;99.90;;;7.55;95.53;98965.66;5094584;28;20416;-80
2021/03/23 18:31:15;;;;;;;18.27;11.50;;;6.60;99.90;;;7.26;96.88;98957.13;5094757;28;20431;-80
2021/03/23 18:37:57;;;;;;;20.70;10.90;;;6.30;99.90;;;7.08;98.78;98962.28;5094283;28;20462;-80
2021/03/23 18:44:32;;;;;;;16.47;8.87;;;6.00;99.90;;;6.95;98.99;98969.56;5094484;28;20934;-80
2021/03/23 18:51:06;;;;;;;19.50;8.27;;;6.00;99.90;;;6.71;100.00;98971.81;5094156;28;20422;-80
2021/03/23 18:57:35;;;;;;;14.03;7.93;;;5.90;99.90;;;6.66;99.65;98971.44;5093896;28;20524;-81
2021/03/23 19:04:09;;;;;;;17.23;8.93;;;5.60;99.90;;;6.52;100.00;98973.50;5093868;28;20415;-80
2021/03/23 19:10:46;;;;;;;16.17;8.20;;;5.60;99.90;;;6.33;100.00;98978.69;5093766;28;20468;-80
2021/03/23 19:17:20;;;;;;;19.53;9.50;;;5.30;99.90;;;6.22;100.00;98981.44;5093468;28;21052;-81
2021/03/23 19:23:54;;;;;;;20.23;10.80;;;5.30;99.90;;;6.17;100.00;98983.63;5093737;28;20503;-80
2021/03/23 19:30:29;;;;;;;17.63;9.97;;;5.00;99.90;;;5.98;100.00;98988.78;5093609;28;20523;-80
2021/03/23 19:41:59;;;;;;;15.60;8.50;;;4.90;99.90;;;5.74;100.00;98990.91;5093943;28;20528;-80
2021/03/23 19:48:33;;;;;;;13.57;8.90;;;4.80;99.90;;;5.71;100.00;98991.16;5093231;28;20454;-80
2021/03/23 19:55:12;;;;;;;24.20;9.33;;;4.70;99.90;;;5.59;100.00;98991.28;5093008;28;20442;-80
2021/03/23 20:01:40;;;;;;;28.03;9.47;;;4.90;99.90;;;5.41;100.00;98990.28;5092951;28;20422;-80
2021/03/23 20:08:19;;;;;;;18.10;9.30;;;4.50;99.90;;;5.17;100.00;98987.19;5092885;28;20418;-80
2021/03/23 20:14:53;;;;;;;19.30;9.83;;;4.40;99.90;;;5.20;100.00;98986.91;5093011;28;20900;-81
2021/03/23 20:21:33;;;;;;;18.80;7.93;;;4.20;99.90;;;5.10;100.00;98990.41;5092908;28;20501;-80
2021/03/23 20:28:02;;;;;;;15.73;9.23;;;4.20;99.90;;;4.83;100.00;98996.09;5092804;28;20414;-80
2021/03/23 20:34:44;;;;;;;15.60;8.83;;;3.80;99.90;;;4.83;100.00;98993.50;5092797;28;20496;-80
2021/03/23 20:41:39;;;;;;;16.43;8.73;;;4.00;99.90;;;4.61;100.00;98998.84;5092777;28;20419;-80
2021/03/23 20:48:13;;;;;;;15.70;9.20;;;3.50;99.90;;;4.43;100.00;99014.13;5092555;28;20453;-82
2021/03/23 20:54:48;;;;;;;13.30;8.67;;;3.70;99.90;;;4.34;100.00;99002.72;5092402;28;20532;-81
2021/03/23 21:01:23;;;;;;;24.33;12.13;;;3.60;99.90;;;4.36;100.00;98995.66;5092491;28;20462;-81
2021/03/23 21:07:58;;;;;;;20.40;10.07;;;3.40;99.90;;;3.98;100.00;98996.16;5096321;28;20498;-81
2021/03/23 21:14:33;;;;;;;17.17;9.60;;;3.00;99.90;;;4.00;100.00;99008.97;5096066;28;20828;-81
2021/03/23 21:21:04;;;;;;;16.43;9.47;;;3.00;99.90;;;3.98;100.00;99003.09;5096025;28;20420;-81
2021/03/23 21:27:32;;;;;;;18.27;10.87;;;3.00;99.90;;;3.88;100.00;99007.34;5095966;28;20414;-81
2021/03/23 21:34:11;;;;;;;22.07;8.90;;;3.10;99.90;;;3.89;100.00;99009.81;5095848;28;20596;-81
2021/03/23 21:40:54;;;;;;;19.90;10.07;;;3.00;99.90;;;3.72;100.00;99012.06;5095766;28;20537;-80
2021/03/23 21:47:32;;;;;;;19.30;10.93;;;2.50;99.90;;;3.56;100.00;99012.47;5095642;28;20438;-81
2021/03/23 21:54:12;;;;;;;16.83;8.97;;;2.60;99.90;;;3.48;100.00;99014.81;5095605;28;20414;-81
2021/03/23 22:00:52;;;;;;;14.80;9.27;;;2.80;99.90;;;3.45;100.00;99013.28;5095199;28;20811;-81
2021/03/23 22:07:26;;;;;;;21.00;10.97;;;2.50;99.90;;;3.40;100.00;99009.44;5095050;28;20418;-81
2021/03/23 22:14:00;;;;;;;16.33;9.53;;;2.60;99.90;;;3.30;100.00;99006.69;5094968;28;20423;-81
2021/03/23 22:20:28;;;;;;;21.83;10.90;;;2.20;99.90;;;3.09;100.00;99005.75;5094774;28;20449;-81
2021/03/23 22:26:55;;;;;;;16.60;9.60;;;2.10;99.90;;;3.06;100.00;99000.81;5094481;28;20458;-81
2021/03/23 22:33:29;;;;;;;22.73;9.97;;;2.50;99.90;;;3.14;100.00;98998.47;5094333;28;21041;-81
2021/03/23 22:49:32;;;;;;;15.50;10.30;;;2.10;99.90;;;2.80;100.00;98999.38;5093989;28;20541;-81
2021/03/23 22:56:08;;;;;;;23.07;9.50;;;2.10;99.90;;;2.78;100.00;98993.50;5094085;28;20426;-81
2021/03/23 23:02:42;;;;;;;20.73;10.57;;;1.50;99.90;;;2.58;100.00;99001.91;5094019;28;20422;-81
2021/03/23 23:09:17;;;;;;;23.10;9.93;;;1.60;99.90;;;2.35;100.00;98983.78;5093743;28;20415;-81
2021/03/23 23:16:21;;;;;;;16.70;9.37;;;1.40;99.90;;;2.48;100.00;98976.78;5093874;28;20418;-81
2021/03/23 23:27:07;;;;;;;16.87;9.30;;;1.60;99.90;;;2.35;100.00;98978.63;5092978;28;20934;-81
2021/03/23 23:33:41;;;;;;;19.93;9.80;;;1.60;99.90;;;2.22;100.00;98983.00;5093665;28;20537;-81
2021/03/23 23:44:44;;;;;;;17.17;9.20;;;1.50;99.90;;;2.32;100.00;98973.69;5093405;28;20474;-81
2021/03/23 23:51:12;;;;;;;16.97;9.80;;;1.30;99.90;;;2.25;100.00;98972.50;5093186;28;20910;-81
2021/03/23 23:57:39;;;;;;;18.47;9.53;;;1.50;99.90;;;2.43;100.00;98968.53;5093044;28;20463;-81
